sensor_id;sensor_type;location;lat;lon;timestamp;pressure;altitude;pressure_sealevel;temperature;humidity
68179;BME280;54998;42.656;23.382;2023-04-27T05:48:13;94980.41;;;9.50;41.02
68179;BME280;54998;42.656;23.382;2023-04-27T05:51:00;94972.66;;;8.48;42.81
68179;BME280;54998;42.656;23.382;2023-04-27T05:53:33;94984.19;;;8.63;42.70
68179;BME280;54998;42.656;23.382;2023-04-27T05:55:58;94984.75;;;9.09;41.74
68179;BME280;54998;42.656;23.382;2023-04-27T05:58:25;94987.91;;;9.32;41.34
68179;BME280;54998;42.656;23.382;2023-04-27T06:00:52;94973.44;;;9.21;41.30
68179;BME280;54998;42.656;23.382;2023-04-27T06:03:29;94985.78;;;9.06;42.67
68179;BME280;54998;42.656;23.382;2023-04-27T06:05:59;94984.47;;;9.12;42.18
68179;BME280;54998;42.656;23.382;2023-04-27T06:08:25;94979.59;;;9.90;41.42
68179;BME280;54998;42.656;23.382;2023-04-27T06:10:51;94984.25;;;10.35;39.98
68179;BME280;54998;42.656;23.382;2023-04-27T06:13:17;94992.75;;;9.25;41.14
68179;BME280;54998;42.656;23.382;2023-04-27T06:15:43;94979.06;;;9.05;42.02
68179;BME280;54998;42.656;23.382;2023-04-27T06:18:08;94977.44;;;9.44;41.40
68179;BME280;54998;42.656;23.382;2023-04-27T06:20:34;94982.06;;;9.60;40.30
68179;BME280;54998;42.656;23.382;2023-04-27T06:23:01;94981.63;;;10.25;40.56
68179;BME280;54998;42.656;23.382;2023-04-27T06:25:26;94970.09;;;9.71;40.53
68179;BME280;54998;42.656;23.382;2023-04-27T06:27:53;94973.44;;;9.11;41.65
68179;BME280;54998;42.656;23.382;2023-04-27T06:30:23;94983.38;;;9.45;41.68
68179;BME280;54998;42.656;23.382;2023-04-27T06:32:51;94981.34;;;9.89;41.24
68179;BME280;54998;42.656;23.382;2023-04-27T06:35:17;94976.97;;;10.30;40.06
68179;BME280;54998;42.656;23.382;2023-04-27T06:37:43;94969.22;;;9.91;40.57
68179;BME280;54998;42.656;23.382;2023-04-27T06:40:09;94987.28;;;9.99;40.15
68179;BME280;54998;42.656;23.382;2023-04-27T06:42:35;94982.16;;;10.77;39.93
68179;BME280;54998;42.656;23.382;2023-04-27T06:45:01;94974.75;;;10.16;40.25
68179;BME280;54998;42.656;23.382;2023-04-27T06:47:35;94983.66;;;9.42;41.55
68179;BME280;54998;42.656;23.382;2023-04-27T06:50:13;94984.78;;;9.69;40.82
68179;BME280;54998;42.656;23.382;2023-04-27T06:52:39;94975.41;;;10.27;40.79
68179;BME280;54998;42.656;23.382;2023-04-27T06:55:05;94989.81;;;10.97;39.69
68179;BME280;54998;42.656;23.382;2023-04-27T06:57:30;94965.63;;;12.90;36.31
68179;BME280;54998;42.656;23.382;2023-04-27T06:59:58;94979.56;;;13.31;34.70
68179;BME280;54998;42.656;23.382;2023-04-27T07:02:24;94969.00;;;13.43;34.74
68179;BME280;54998;42.656;23.382;2023-04-27T07:04:52;94978.47;;;13.34;34.95
68179;BME280;54998;42.656;23.382;2023-04-27T07:07:18;94977.25;;;13.97;34.52
68179;BME280;54998;42.656;23.382;2023-04-27T07:09:43;94971.47;;;14.20;33.48
68179;BME280;54998;42.656;23.382;2023-04-27T07:12:08;94961.59;;;13.98;32.85
68179;BME280;54998;42.656;23.382;2023-04-27T07:14:34;94973.28;;;15.96;30.67
68179;BME280;54998;42.656;23.382;2023-04-27T07:16:59;94975.06;;;15.48;31.28
68179;BME280;54998;42.656;23.382;2023-04-27T07:19:27;94963.44;;;14.72;32.63
68179;BME280;54998;42.656;23.382;2023-04-27T07:21:52;94961.78;;;14.22;32.87
68179;BME280;54998;42.656;23.382;2023-04-27T07:24:18;94971.16;;;14.14;32.81
68179;BME280;54998;42.656;23.382;2023-04-27T07:26:44;94970.94;;;15.78;32.23
68179;BME280;54998;42.656;23.382;2023-04-27T07:29:12;94950.34;;;21.28;24.36
68179;BME280;54998;42.656;23.382;2023-04-27T07:31:39;94947.13;;;25.94;20.38
68179;BME280;54998;42.656;23.382;2023-04-27T07:34:07;94949.69;;;26.35;18.51
68179;BME280;54998;42.656;23.382;2023-04-27T07:36:35;94951.94;;;27.22;17.91
68179;BME280;54998;42.656;23.382;2023-04-27T07:39:11;94953.06;;;23.26;20.01
68179;BME280;54998;42.656;23.382;2023-04-27T07:41:39;94954.91;;;19.65;24.32
68179;BME280;54998;42.656;23.382;2023-04-27T07:44:05;94945.09;;;18.26;25.87
68179;BME280;54998;42.656;23.382;2023-04-27T07:46:33;94955.88;;;18.94;25.68
68179;BME280;54998;42.656;23.382;2023-04-27T07:49:01;94952.31;;;21.46;23.39
68179;BME280;54998;42.656;23.382;2023-04-27T07:51:29;94937.53;;;23.86;20.80
68179;BME280;54998;42.656;23.382;2023-04-27T07:53:59;94951.44;;;24.17;19.76
68179;BME280;54998;42.656;23.382;2023-04-27T07:56:26;94940.13;;;24.89;18.84
68179;BME280;54998;42.656;23.382;2023-04-27T07:58:51;94954.44;;;19.96;22.96
68179;BME280;54998;42.656;23.382;2023-04-27T08:01:17;94951.13;;;17.75;25.40
68179;BME280;54998;42.656;23.382;2023-04-27T08:03:44;94953.38;;;17.04;27.10
68179;BME280;54998;42.656;23.382;2023-04-27T08:06:14;94951.66;;;18.93;25.13
68179;BME280;54998;42.656;23.382;2023-04-27T08:08:40;94948.66;;;18.68;25.64
68179;BME280;54998;42.656;23.382;2023-04-27T08:11:08;94952.94;;;16.77;27.92
68179;BME280;54998;42.656;23.382;2023-04-27T08:13:34;94958.97;;;15.77;29.48
68179;BME280;54998;42.656;23.382;2023-04-27T08:15:59;94950.72;;;14.70;29.52
68179;BME280;54998;42.656;23.382;2023-04-27T08:18:25;94961.84;;;16.37;29.09
68179;BME280;54998;42.656;23.382;2023-04-27T08:20:51;94953.81;;;17.67;27.56
68179;BME280;54998;42.656;23.382;2023-04-27T08:23:19;94957.56;;;17.79;26.81
68179;BME280;54998;42.656;23.382;2023-04-27T08:25:44;94946.97;;;16.77;27.96
68179;BME280;54998;42.656;23.382;2023-04-27T08:28:13;94964.00;;;15.79;28.05
68179;BME280;54998;42.656;23.382;2023-04-27T08:30:41;94948.47;;;17.09;27.83
68179;BME280;54998;42.656;23.382;2023-04-27T08:33:07;94953.72;;;17.45;26.41
68179;BME280;54998;42.656;23.382;2023-04-27T08:35:33;94961.09;;;16.28;27.73
68179;BME280;54998;42.656;23.382;2023-04-27T08:37:58;94965.38;;;14.78;30.00
68179;BME280;54998;42.656;23.382;2023-04-27T08:40:24;94953.47;;;15.80;28.90
68179;BME280;54998;42.656;23.382;2023-04-27T08:42:57;94951.59;;;16.67;28.44
68179;BME280;54998;42.656;23.382;2023-04-27T08:45:24;94954.19;;;16.90;27.85
68179;BME280;54998;42.656;23.382;2023-04-27T08:48:10;94960.81;;;16.23;29.08
68179;BME280;54998;42.656;23.382;2023-04-27T08:50:58;94970.19;;;15.14;29.32
68179;BME280;54998;42.656;23.382;2023-04-27T08:53:33;94964.38;;;14.05;30.99
68179;BME280;54998;42.656;23.382;2023-04-27T08:55:59;94961.03;;;13.70;31.77
68179;BME280;54998;42.656;23.382;2023-04-27T08:58:44;94959.69;;;15.07;32.23
68179;BME280;54998;42.656;23.382;2023-04-27T09:01:10;94950.50;;;15.92;29.81
68179;BME280;54998;42.656;23.382;2023-04-27T09:03:36;94950.63;;;16.21;29.24
68179;BME280;54998;42.656;23.382;2023-04-27T09:06:06;94954.31;;;16.04;28.50
68179;BME280;54998;42.656;23.382;2023-04-27T09:08:46;94954.81;;;15.99;28.13
68179;BME280;54998;42.656;23.382;2023-04-27T09:11:36;94956.25;;;16.94;28.12
68179;BME280;54998;42.656;23.382;2023-04-27T09:14:23;94957.88;;;17.55;26.91
68179;BME280;54998;42.656;23.382;2023-04-27T09:16:57;94949.22;;;16.42;28.47
68179;BME280;54998;42.656;23.382;2023-04-27T09:19:27;94950.53;;;15.84;29.60
68179;BME280;54998;42.656;23.382;2023-04-27T09:22:07;94947.34;;;15.65;29.93
68179;BME280;54998;42.656;23.382;2023-04-27T09:24:35;94943.50;;;16.47;29.98
68179;BME280;54998;42.656;23.382;2023-04-27T09:27:02;94954.66;;;16.70;27.85
68179;BME280;54998;42.656;23.382;2023-04-27T09:29:36;94951.69;;;15.81;28.78
68179;BME280;54998;42.656;23.382;2023-04-27T09:32:16;94937.94;;;14.69;31.96
68179;BME280;54998;42.656;23.382;2023-04-27T09:34:44;94938.13;;;15.31;30.49
68179;BME280;54998;42.656;23.382;2023-04-27T09:37:11;94932.13;;;14.42;31.67
68179;BME280;54998;42.656;23.382;2023-04-27T09:39:45;94934.00;;;13.83;32.04
68179;BME280;54998;42.656;23.382;2023-04-27T09:42:14;94932.91;;;14.92;30.21
68179;BME280;54998;42.656;23.382;2023-04-27T09:44:40;94937.75;;;14.46;31.54
68179;BME280;54998;42.656;23.382;2023-04-27T09:47:13;94923.69;;;15.45;30.97
68179;BME280;54998;42.656;23.382;2023-04-27T09:49:39;94913.59;;;15.27;30.47
68179;BME280;54998;42.656;23.382;2023-04-27T09:52:17;94927.91;;;14.25;31.37
68179;BME280;54998;42.656;23.382;2023-04-27T09:54:42;94928.50;;;13.77;33.30
68179;BME280;54998;42.656;23.382;2023-04-27T10:00:01;94908.31;;;15.52;29.74
68179;BME280;54998;42.656;23.382;2023-04-27T10:02:41;94907.38;;;15.45;30.88
68179;BME280;54998;42.656;23.382;2023-04-27T10:07:39;94901.06;;;15.78;29.03
68179;BME280;54998;42.656;23.382;2023-04-27T10:10:14;94910.94;;;16.06;29.83
68179;BME280;54998;42.656;23.382;2023-04-27T10:12:40;94903.59;;;15.55;29.20
68179;BME280;54998;42.656;23.382;2023-04-27T10:15:15;94907.91;;;14.76;29.64
68179;BME280;54998;42.656;23.382;2023-04-27T10:17:49;94920.50;;;14.30;31.23
68179;BME280;54998;42.656;23.382;2023-04-27T10:20:15;94913.03;;;13.94;31.90
68179;BME280;54998;42.656;23.382;2023-04-27T10:25:54;94919.78;;;13.79;32.35
68179;BME280;54998;42.656;23.382;2023-04-27T10:28:25;94925.00;;;13.95;32.40
68179;BME280;54998;42.656;23.382;2023-04-27T10:30:52;94902.94;;;13.42;32.26
68179;BME280;54998;42.656;23.382;2023-04-27T10:33:21;94920.88;;;13.68;31.83
68179;BME280;54998;42.656;23.382;2023-04-27T10:35:56;94908.38;;;14.79;31.21
68179;BME280;54998;42.656;23.382;2023-04-27T10:41:53;94902.00;;;16.70;29.64
68179;BME280;54998;42.656;23.382;2023-04-27T10:44:25;94916.81;;;16.99;27.01
68179;BME280;54998;42.656;23.382;2023-04-27T10:46:53;94908.56;;;16.19;28.27
68179;BME280;54998;42.656;23.382;2023-04-27T10:49:20;94890.81;;;14.75;31.56
68179;BME280;54998;42.656;23.382;2023-04-27T10:51:48;94909.53;;;14.61;30.77
68179;BME280;54998;42.656;23.382;2023-04-27T10:54:14;94916.56;;;14.99;30.99
68179;BME280;54998;42.656;23.382;2023-04-27T10:56:43;94891.00;;;15.13;30.92
68179;BME280;54998;42.656;23.382;2023-04-27T10:59:08;94907.91;;;14.43;31.62
68179;BME280;54998;42.656;23.382;2023-04-27T11:01:36;94904.13;;;15.03;30.73
68179;BME280;54998;42.656;23.382;2023-04-27T11:04:02;94907.28;;;14.16;31.17
68179;BME280;54998;42.656;23.382;2023-04-27T11:06:51;94894.38;;;14.57;32.49
68179;BME280;54998;42.656;23.382;2023-04-27T11:09:30;94891.91;;;14.72;31.10
68179;BME280;54998;42.656;23.382;2023-04-27T11:11:56;94910.19;;;14.38;30.88
68179;BME280;54998;42.656;23.382;2023-04-27T11:14:25;94891.78;;;14.33;29.97
68179;BME280;54998;42.656;23.382;2023-04-27T11:16:50;94889.53;;;15.18;30.35
68179;BME280;54998;42.656;23.382;2023-04-27T11:19:16;94902.94;;;15.22;28.90
68179;BME280;54998;42.656;23.382;2023-04-27T11:22:04;94910.31;;;15.81;30.32
68179;BME280;54998;42.656;23.382;2023-04-27T11:25:13;94900.41;;;16.08;27.86
68179;BME280;54998;42.656;23.382;2023-04-27T11:27:46;94897.41;;;14.77;29.62
68179;BME280;54998;42.656;23.382;2023-04-27T11:30:21;94916.91;;;13.98;30.58
68179;BME280;54998;42.656;23.382;2023-04-27T11:32:48;94912.88;;;13.87;31.16
68179;BME280;54998;42.656;23.382;2023-04-27T11:35:14;94914.53;;;14.37;32.12
68179;BME280;54998;42.656;23.382;2023-04-27T11:37:40;94890.38;;;15.03;29.91
68179;BME280;54998;42.656;23.382;2023-04-27T11:40:23;94911.56;;;14.98;29.97
68179;BME280;54998;42.656;23.382;2023-04-27T11:43:00;94909.47;;;13.79;30.93
68179;BME280;54998;42.656;23.382;2023-04-27T11:45:29;94916.06;;;13.65;31.80
68179;BME280;54998;42.656;23.382;2023-04-27T11:47:57;94910.78;;;13.83;31.19
68179;BME280;54998;42.656;23.382;2023-04-27T11:50:26;94915.47;;;13.87;31.63
68179;BME280;54998;42.656;23.382;2023-04-27T11:52:51;94920.59;;;13.79;31.25
68179;BME280;54998;42.656;23.382;2023-04-27T11:55:20;94912.75;;;14.22;30.88
68179;BME280;54998;42.656;23.382;2023-04-27T11:57:45;94911.94;;;14.46;29.86
68179;BME280;54998;42.656;23.382;2023-04-27T12:00:11;94915.50;;;14.36;30.59
68179;BME280;54998;42.656;23.382;2023-04-27T12:02:42;94916.72;;;15.06;30.01
68179;BME280;54998;42.656;23.382;2023-04-27T12:05:08;94913.72;;;14.37;31.14
68179;BME280;54998;42.656;23.382;2023-04-27T12:07:34;94914.03;;;14.01;30.51
68179;BME280;54998;42.656;23.382;2023-04-27T12:10:02;94924.03;;;14.04;30.84
68179;BME280;54998;42.656;23.382;2023-04-27T12:12:36;94920.66;;;14.61;29.73
68179;BME280;54998;42.656;23.382;2023-04-27T12:15:01;94928.22;;;14.13;31.81
68179;BME280;54998;42.656;23.382;2023-04-27T12:17:29;94921.13;;;14.07;30.50
68179;BME280;54998;42.656;23.382;2023-04-27T12:19:55;94925.78;;;15.02;30.55
68179;BME280;54998;42.656;23.382;2023-04-27T12:22:20;94916.19;;;15.58;29.02
68179;BME280;54998;42.656;23.382;2023-04-27T12:24:49;94920.19;;;15.69;28.88
68179;BME280;54998;42.656;23.382;2023-04-27T12:27:14;94911.53;;;15.54;29.21
68179;BME280;54998;42.656;23.382;2023-04-27T12:29:43;94933.78;;;15.32;29.44
68179;BME280;54998;42.656;23.382;2023-04-27T12:32:08;94925.59;;;15.12;30.42
68179;BME280;54998;42.656;23.382;2023-04-27T12:34:34;94918.50;;;15.06;29.23
68179;BME280;54998;42.656;23.382;2023-04-27T12:37:07;94921.25;;;15.04;29.12
68179;BME280;54998;42.656;23.382;2023-04-27T12:39:32;94925.00;;;13.95;29.73
68179;BME280;54998;42.656;23.382;2023-04-27T12:41:58;94925.28;;;13.92;30.96
68179;BME280;54998;42.656;23.382;2023-04-27T12:44:23;94919.31;;;13.83;31.11
68179;BME280;54998;42.656;23.382;2023-04-27T12:46:51;94919.06;;;14.27;30.76
68179;BME280;54998;42.656;23.382;2023-04-27T12:49:17;94922.44;;;14.52;29.90
68179;BME280;54998;42.656;23.382;2023-04-27T12:51:43;94915.31;;;14.54;30.24
68179;BME280;54998;42.656;23.382;2023-04-27T12:54:10;94924.19;;;14.76;30.50
68179;BME280;54998;42.656;23.382;2023-04-27T12:56:39;94914.69;;;14.77;29.26
68179;BME280;54998;42.656;23.382;2023-04-27T12:59:05;94923.09;;;14.71;29.89
68179;BME280;54998;42.656;23.382;2023-04-27T13:01:31;94916.94;;;14.88;30.48
68179;BME280;54998;42.656;23.382;2023-04-27T13:04:02;94905.34;;;14.51;30.35
68179;BME280;54998;42.656;23.382;2023-04-27T13:06:28;94921.44;;;13.96;31.49
68179;BME280;54998;42.656;23.382;2023-04-27T13:08:57;94917.91;;;14.13;31.66
68179;BME280;54998;42.656;23.382;2023-04-27T13:11:23;94912.91;;;14.69;30.28
68179;BME280;54998;42.656;23.382;2023-04-27T13:13:51;94926.28;;;14.97;30.35
68179;BME280;54998;42.656;23.382;2023-04-27T13:16:17;94903.03;;;14.81;30.33
68179;BME280;54998;42.656;23.382;2023-04-27T13:18:45;94913.06;;;14.76;30.72
68179;BME280;54998;42.656;23.382;2023-04-27T13:21:13;94922.22;;;13.96;31.49
68179;BME280;54998;42.656;23.382;2023-04-27T13:23:41;94922.91;;;13.90;32.14
68179;BME280;54998;42.656;23.382;2023-04-27T13:26:07;94902.53;;;13.71;31.36
68179;BME280;54998;42.656;23.382;2023-04-27T13:28:34;94913.84;;;13.86;32.19
68179;BME280;54998;42.656;23.382;2023-04-27T13:31:02;94905.75;;;13.65;31.94
68179;BME280;54998;42.656;23.382;2023-04-27T13:33:28;94907.59;;;14.30;31.18
68179;BME280;54998;42.656;23.382;2023-04-27T13:35:56;94907.88;;;14.92;30.16
68179;BME280;54998;42.656;23.382;2023-04-27T13:38:21;94906.72;;;15.03;29.42
68179;BME280;54998;42.656;23.382;2023-04-27T13:40:46;94903.88;;;14.73;30.43
68179;BME280;54998;42.656;23.382;2023-04-27T13:43:12;94904.81;;;14.97;29.99
68179;BME280;54998;42.656;23.382;2023-04-27T13:45:37;94913.22;;;14.42;30.14
68179;BME280;54998;42.656;23.382;2023-04-27T13:48:04;94912.75;;;14.46;30.76
68179;BME280;54998;42.656;23.382;2023-04-27T13:50:30;94901.59;;;14.78;29.93
68179;BME280;54998;42.656;23.382;2023-04-27T13:52:55;94925.00;;;14.85;29.96
68179;BME280;54998;42.656;23.382;2023-04-27T13:55:21;94923.09;;;14.63;31.11
68179;BME280;54998;42.656;23.382;2023-04-27T13:57:46;94925.03;;;14.69;31.00
68179;BME280;54998;42.656;23.382;2023-04-27T14:00:13;94922.91;;;14.81;29.38
68179;BME280;54998;42.656;23.382;2023-04-27T14:02:38;94937.31;;;14.75;30.32
68179;BME280;54998;42.656;23.382;2023-04-27T14:05:04;94927.69;;;13.00;31.11
68179;BME280;54998;42.656;23.382;2023-04-27T14:07:30;94933.91;;;12.89;32.87
68179;BME280;54998;42.656;23.382;2023-04-27T14:10:04;94926.78;;;12.83;32.75
68179;BME280;54998;42.656;23.382;2023-04-27T14:12:31;94933.66;;;12.30;33.19
68179;BME280;54998;42.656;23.382;2023-04-27T14:14:56;94937.06;;;12.13;33.73
68179;BME280;54998;42.656;23.382;2023-04-27T14:17:22;94941.28;;;12.40;33.65
68179;BME280;54998;42.656;23.382;2023-04-27T14:19:47;94924.13;;;12.67;33.34
68179;BME280;54998;42.656;23.382;2023-04-27T14:22:12;94926.25;;;12.71;33.32
68179;BME280;54998;42.656;23.382;2023-04-27T14:24:38;94935.31;;;12.58;34.35
68179;BME280;54998;42.656;23.382;2023-04-27T14:27:03;94943.66;;;12.51;33.05
68179;BME280;54998;42.656;23.382;2023-04-27T14:29:29;94942.78;;;12.25;32.70
68179;BME280;54998;42.656;23.382;2023-04-27T14:31:54;94949.13;;;12.12;33.54
68179;BME280;54998;42.656;23.382;2023-04-27T14:34:20;94943.59;;;12.07;33.98
68179;BME280;54998;42.656;23.382;2023-04-27T14:36:45;94949.00;;;12.40;33.60
68179;BME280;54998;42.656;23.382;2023-04-27T14:39:11;94951.00;;;12.90;33.53
68179;BME280;54998;42.656;23.382;2023-04-27T14:41:37;94949.88;;;12.93;32.86
68179;BME280;54998;42.656;23.382;2023-04-27T14:44:07;94966.53;;;12.81;32.91
68179;BME280;54998;42.656;23.382;2023-04-27T14:46:32;94955.81;;;12.23;32.49
68179;BME280;54998;42.656;23.382;2023-04-27T14:48:58;94964.91;;;12.18;33.83
68179;BME280;54998;42.656;23.382;2023-04-27T14:51:24;94956.38;;;12.35;33.18
68179;BME280;54998;42.656;23.382;2023-04-27T14:53:53;94963.38;;;12.43;33.55
68179;BME280;54998;42.656;23.382;2023-04-27T14:56:18;94968.50;;;12.61;33.13
68179;BME280;54998;42.656;23.382;2023-04-27T14:58:48;94947.53;;;13.08;32.28
68179;BME280;54998;42.656;23.382;2023-04-27T15:01:18;94959.25;;;13.02;32.63
68179;BME280;54998;42.656;23.382;2023-04-27T15:03:44;94972.69;;;13.14;32.55
68179;BME280;54998;42.656;23.382;2023-04-27T15:06:16;94965.88;;;12.35;32.84
68179;BME280;54998;42.656;23.382;2023-04-27T15:08:42;94978.19;;;12.49;33.34
68179;BME280;54998;42.656;23.382;2023-04-27T15:11:07;94972.22;;;12.66;33.14
68179;BME280;54998;42.656;23.382;2023-04-27T15:13:32;94973.03;;;12.67;32.38
68179;BME280;54998;42.656;23.382;2023-04-27T15:15:58;94964.84;;;12.27;32.91
68179;BME280;54998;42.656;23.382;2023-04-27T15:18:25;94983.22;;;11.87;33.48
68179;BME280;54998;42.656;23.382;2023-04-27T15:20:50;94974.38;;;11.71;33.10
68179;BME280;54998;42.656;23.382;2023-04-27T15:23:17;94963.00;;;11.46;33.67
68179;BME280;54998;42.656;23.382;2023-04-27T15:25:45;94983.09;;;11.61;33.67
68179;BME280;54998;42.656;23.382;2023-04-27T15:28:11;94970.84;;;11.45;33.82
68179;BME280;54998;42.656;23.382;2023-04-27T15:30:38;94989.94;;;11.42;34.14
68179;BME280;54998;42.656;23.382;2023-04-27T15:33:04;94994.28;;;11.42;33.78
68179;BME280;54998;42.656;23.382;2023-04-27T15:35:32;94985.91;;;11.67;34.97
68179;BME280;54998;42.656;23.382;2023-04-27T15:38:05;94983.66;;;11.55;33.41
68179;BME280;54998;42.656;23.382;2023-04-27T15:40:31;94988.59;;;11.38;33.41
68179;BME280;54998;42.656;23.382;2023-04-27T15:43:00;94995.25;;;11.41;34.05
68179;BME280;54998;42.656;23.382;2023-04-27T15:45:26;94997.63;;;11.52;35.11
68179;BME280;54998;42.656;23.382;2023-04-27T15:47:52;94987.25;;;11.34;34.64
68179;BME280;54998;42.656;23.382;2023-04-27T15:50:25;95006.28;;;11.51;34.31
68179;BME280;54998;42.656;23.382;2023-04-27T15:52:51;94992.59;;;11.60;34.58
68179;BME280;54998;42.656;23.382;2023-04-27T15:55:16;94992.44;;;11.24;34.19
68179;BME280;54998;42.656;23.382;2023-04-27T15:57:44;95014.09;;;11.22;34.54
68179;BME280;54998;42.656;23.382;2023-04-27T16:00:17;95015.03;;;11.21;34.71
68179;BME280;54998;42.656;23.382;2023-04-27T16:02:46;95010.47;;;11.15;35.04
68179;BME280;54998;42.656;23.382;2023-04-27T16:05:14;95020.56;;;11.26;35.06
68179;BME280;54998;42.656;23.382;2023-04-27T16:07:41;95004.88;;;11.29;34.81
68179;BME280;54998;42.656;23.382;2023-04-27T16:10:07;95012.63;;;11.19;34.54
68179;BME280;54998;42.656;23.382;2023-04-27T16:12:33;95020.28;;;10.62;35.53
68179;BME280;54998;42.656;23.382;2023-04-27T16:15:01;95016.09;;;10.42;36.10
68179;BME280;54998;42.656;23.382;2023-04-27T16:17:29;95029.59;;;10.54;36.30
68179;BME280;54998;42.656;23.382;2023-04-27T16:20:00;95031.56;;;10.21;36.75
68179;BME280;54998;42.656;23.382;2023-04-27T16:22:27;95026.28;;;10.03;37.54
68179;BME280;54998;42.656;23.382;2023-04-27T16:24:53;95012.69;;;9.62;37.83
68179;BME280;54998;42.656;23.382;2023-04-27T16:27:21;95034.56;;;9.66;37.93
68179;BME280;54998;42.656;23.382;2023-04-27T16:29:46;95038.41;;;9.51;38.55
68179;BME280;54998;42.656;23.382;2023-04-27T16:32:11;95030.16;;;9.47;38.36
68179;BME280;54998;42.656;23.382;2023-04-27T16:34:37;95017.06;;;9.40;38.57
68179;BME280;54998;42.656;23.382;2023-04-27T16:37:07;95042.00;;;9.38;38.62
68179;BME280;54998;42.656;23.382;2023-04-27T16:39:35;95028.41;;;9.17;38.54
68179;BME280;54998;42.656;23.382;2023-04-27T16:42:01;95051.03;;;9.33;39.19
68179;BME280;54998;42.656;23.382;2023-04-27T16:44:26;95057.56;;;9.25;39.17
68179;BME280;54998;42.656;23.382;2023-04-27T16:46:55;95053.09;;;9.18;39.46
68179;BME280;54998;42.656;23.382;2023-04-27T16:49:20;95063.75;;;9.02;39.57
68179;BME280;54998;42.656;23.382;2023-04-27T16:51:46;95063.34;;;8.97;39.31
68179;BME280;54998;42.656;23.382;2023-04-27T16:54:11;95065.72;;;8.89;40.11
68179;BME280;54998;42.656;23.382;2023-04-27T16:56:40;95059.53;;;8.91;40.42
68179;BME280;54998;42.656;23.382;2023-04-27T16:59:06;95080.91;;;8.80;40.29
68179;BME280;54998;42.656;23.382;2023-04-27T17:01:31;95085.63;;;8.85;40.27
68179;BME280;54998;42.656;23.382;2023-04-27T17:03:58;95084.75;;;8.75;41.35
68179;BME280;54998;42.656;23.382;2023-04-27T17:06:24;95066.50;;;8.68;41.07
68179;BME280;54998;42.656;23.382;2023-04-27T17:08:55;95077.94;;;8.64;41.62
68179;BME280;54998;42.656;23.382;2023-04-27T17:11:23;95085.50;;;8.66;41.92
68179;BME280;54998;42.656;23.382;2023-04-27T17:13:48;95096.38;;;8.47;41.80
68179;BME280;54998;42.656;23.382;2023-04-27T17:16:15;95089.59;;;8.46;42.29
68179;BME280;54998;42.656;23.382;2023-04-27T17:18:41;95110.91;;;8.46;42.84
68179;BME280;54998;42.656;23.382;2023-04-27T17:21:10;95082.41;;;8.28;43.15
68179;BME280;54998;42.656;23.382;2023-04-27T17:23:35;95102.53;;;8.33;42.76
68179;BME280;54998;42.656;23.382;2023-04-27T17:26:04;95088.47;;;8.27;42.68
68179;BME280;54998;42.656;23.382;2023-04-27T17:28:31;95102.75;;;8.41;42.89
68179;BME280;54998;42.656;23.382;2023-04-27T17:31:00;95109.72;;;8.39;42.67
68179;BME280;54998;42.656;23.382;2023-04-27T17:33:28;95123.00;;;8.44;43.05
68179;BME280;54998;42.656;23.382;2023-04-27T17:35:59;95114.69;;;8.52;42.79
68179;BME280;54998;42.656;23.382;2023-04-27T17:38:25;95116.13;;;8.45;43.21
68179;BME280;54998;42.656;23.382;2023-04-27T17:40:50;95128.91;;;8.45;42.58
68179;BME280;54998;42.656;23.382;2023-04-27T17:43:16;95138.03;;;8.70;43.31
68179;BME280;54998;42.656;23.382;2023-04-27T17:45:44;95135.81;;;8.65;43.18
68179;BME280;54998;42.656;23.382;2023-04-27T17:48:09;95144.69;;;8.61;43.35
68179;BME280;54998;42.656;23.382;2023-04-27T17:50:36;95145.88;;;8.46;43.39
68179;BME280;54998;42.656;23.382;2023-04-27T17:53:02;95144.34;;;8.54;43.41
68179;BME280;54998;42.656;23.382;2023-04-27T17:55:29;95150.63;;;8.61;43.77
68179;BME280;54998;42.656;23.382;2023-04-27T17:57:55;95140.91;;;8.44;43.47
68179;BME280;54998;42.656;23.382;2023-04-27T18:00:23;95158.84;;;8.65;43.72
68179;BME280;54998;42.656;23.382;2023-04-27T18:02:51;95160.38;;;8.56;43.58
68179;BME280;54998;42.656;23.382;2023-04-27T18:05:17;95164.19;;;8.73;43.66
68179;BME280;54998;42.656;23.382;2023-04-27T18:07:42;95179.31;;;8.76;43.88
68179;BME280;54998;42.656;23.382;2023-04-27T18:10:10;95175.47;;;8.71;44.07
68179;BME280;54998;42.656;23.382;2023-04-27T18:12:35;95178.00;;;8.82;43.46
68179;BME280;54998;42.656;23.382;2023-04-27T18:15:06;95189.66;;;8.75;43.55
68179;BME280;54998;42.656;23.382;2023-04-27T18:17:34;95174.78;;;8.69;43.99
68179;BME280;54998;42.656;23.382;2023-04-27T18:19:59;95189.28;;;8.79;43.60
68179;BME280;54998;42.656;23.382;2023-04-27T18:22:29;95192.09;;;8.65;44.25
68179;BME280;54998;42.656;23.382;2023-04-27T18:24:55;95196.84;;;8.81;43.70
68179;BME280;54998;42.656;23.382;2023-04-27T18:27:20;95197.66;;;8.81;43.84
68179;BME280;54998;42.656;23.382;2023-04-27T18:29:46;95195.47;;;8.77;44.06
68179;BME280;54998;42.656;23.382;2023-04-27T18:32:11;95206.31;;;8.58;43.92
68179;BME280;54998;42.656;23.382;2023-04-27T18:34:36;95207.47;;;8.65;44.16
68179;BME280;54998;42.656;23.382;2023-04-27T18:37:02;95218.38;;;8.67;44.36
68179;BME280;54998;42.656;23.382;2023-04-27T18:39:29;95221.53;;;8.71;44.42
68179;BME280;54998;42.656;23.382;2023-04-27T18:41:55;95219.72;;;8.50;44.36
68179;BME280;54998;42.656;23.382;2023-04-27T18:44:21;95223.75;;;8.30;44.56
68179;BME280;54998;42.656;23.382;2023-04-27T18:46:47;95220.41;;;8.18;44.62
68179;BME280;54998;42.656;23.382;2023-04-27T18:49:12;95231.91;;;8.47;45.20
68179;BME280;54998;42.656;23.382;2023-04-27T18:51:37;95217.94;;;8.39;44.51
68179;BME280;54998;42.656;23.382;2023-04-27T18:54:03;95208.53;;;8.29;44.41
68179;BME280;54998;42.656;23.382;2023-04-27T18:56:29;95239.13;;;8.53;45.12